Flight Track Log - Related Links

Times and Time Zones

All times are in EDT time to prevent confusion due to time zone crossing. See the N789CA flight status page for this flight to view local times or setup timezone preferences in your user account.

Time Position Orientation Groundspeed Altitude Reporting Facility
EDT Latitude Longitude Course Direction KTS MPH feet Rate Location/Type
Fri 09:56:07 AM 26.0761 -80.1311 74° East 173 199 700  Level Miami Center
Fri 09:57:17 AM 26.0939 -80.0614 74° East 228 262 2,600 1,864 Climbing Miami Center
Fri 09:58:19 AM 26.1589 -80.0347 20° North 265 305 4,800 1,161 Climbing Miami Center
Fri 09:59:21 AM 26.2231 -80.0789 328° Northwest 271 312 5,000 1,268 Climbing Miami Center
Fri 10:00:22 AM 26.2953 -80.1469 320° Northwest 295 339 7,400 2,537 Climbing Miami Center
Fri 10:01:24 AM 26.3519 -80.2106 315° West 289 333 10,200 2,516 Climbing Miami Center
Fri 10:02:26 AM 26.4192 -80.2589 327° Northwest 291 335 12,600 2,244 Climbing Miami Center
Fri 10:03:27 AM 26.5000 -80.3111 330° Northwest 312 359 14,800 2,049 Climbing Miami Center
Fri 10:04:29 AM 26.5778 -80.3614 330° Northwest 320 368 16,800 1,984 Climbing Miami Center
Fri 10:05:31 AM 26.6708 -80.3953 342° North 327 376 18,900 1,935 Climbing Miami Center
Fri 10:06:33 AM 26.7583 -80.4247 343° North 327 376 20,800 1,756 Climbing Miami Center
Fri 10:07:34 AM 26.8464 -80.4561 342° North 327 376 22,500 1,366 Climbing Miami Center
Fri 10:08:36 AM 26.9378 -80.4875 343° North 340 391 23,600 1,016 Climbing Miami Center
Fri 10:09:38 AM 27.0344 -80.5208 343° North 357 411 24,600 976 Climbing Miami Center
Fri 10:10:39 AM 27.1344 -80.5558 343° North 373 429 25,600 976 Climbing Miami Center
Fri 10:11:41 AM 27.2369 -80.5919 343° North 384 442 26,600 1,065 Climbing Miami Center
Fri 10:12:43 AM 27.3394 -80.6283 342° North 385 443 27,800 1,113 Climbing Miami Center
Fri 10:13:45 AM 27.4425 -80.6636 343° North 385 443 28,900 1,268 Climbing Miami Center
Fri 10:14:46 AM 27.5672 -80.7067 343° North 391 450 30,400 1,268 Climbing Miami Center
Fri 10:15:48 AM 27.6700 -80.7442 342° North 383 441 31,500 1,065 Climbing Miami Center
Fri 10:16:50 AM 27.7708 -80.7803 342° North 377 434 32,600 968 Climbing Miami Center
Fri 10:17:52 AM 27.8747 -80.8172 343° North 380 437 33,500 878 Climbing Miami Center
Fri 10:18:53 AM 27.9761 -80.8531 343° North 382 440 34,400 829 Climbing Miami Center
Fri 10:19:55 AM 28.0767 -80.8892 342° North 382 440 35,200 919 Climbing Miami Center
Fri 10:20:57 AM 28.1928 -80.9317 342° North 379 436 36,300 968 Climbing Miami Center
Fri 10:21:59 AM 28.2964 -80.9681 343° North 372 428 37,200 823 Climbing Miami Center
Fri 10:23:01 AM 28.3922 -81.0031 342° North 368 423 38,000 677 Climbing Miami Center
Fri 10:24:03 AM 28.4869 -81.0375 342° North 361 415 38,600 484 Climbing Miami Center
Fri 10:25:05 AM 28.5819 -81.0717 342° North 361 415 39,000 194 Climbing Miami Center
Fri 10:26:07 AM 28.6922 -81.1106 343° North 368 423 39,000  Level Miami Center
Fri 10:27:09 AM 28.7919 -81.1394 346° North 377 434 39,000  Level Miami Center
Fri 10:28:11 AM 28.8992 -81.1636 349° North 387 445 39,000  Level Miami Center
Fri 10:29:29 AM 29.0569 -81.2014 348° North 408 470 39,000  Level Jacksonville Center
Fri 10:30:29 AM 29.1661 -81.2447 341° North 416 479 39,000  Level Jacksonville Center
Fri 10:31:29 AM 29.2814 -81.2689 350° North 417 480 39,000  Level Jacksonville Center
Fri 10:32:29 AM 29.4006 -81.2908 351° North 425 489 39,000  Level Jacksonville Center
Fri 10:33:29 AM 29.5008 -81.3106 350° North 427 491 39,000  Level Jacksonville Center
Fri 10:34:29 AM 29.6222 -81.3325 351° North 427 491 39,000  Level Jacksonville Center
Fri 10:35:29 AM 29.7456 -81.3281 North 433 498 39,000 250 Level Jacksonville Center
Fri 10:36:29 AM 29.8644 -81.3192 North 427 491 39,500 550 Climbing Jacksonville Center
Fri 10:37:29 AM 29.9811 -81.3122 North 422 486 40,100 650 Climbing Jacksonville Center
Fri 10:38:29 AM 30.0981 -81.3081 North 417 480 40,800 450 Climbing Jacksonville Center
Fri 10:39:29 AM 30.2086 -81.3014 North 412 474 41,000 100 Climbing Jacksonville Center
Fri 10:40:29 AM 30.3211 -81.2947 North 406 467 41,000  Level Jacksonville Center
Fri 10:41:29 AM 30.4381 -81.2881 North 406 467 41,000  Level Jacksonville Center
Fri 10:42:29 AM 30.5528 -81.2836 North 406 467 41,000  Level Jacksonville Center
Fri 10:43:29 AM 30.6717 -81.2767 North 406 467 41,000  Level Jacksonville Center
Fri 10:44:29 AM 30.7886 -81.2725 North 412 474 41,000  Level Jacksonville Center
Fri 10:45:29 AM 30.9033 -81.2656 North 412 474 41,000  Level Jacksonville Center
Fri 10:46:29 AM 31.0244 -81.2611 North 422 486 41,000  Level Jacksonville Center
Fri 10:47:29 AM 31.1411 -81.2517 North 422 486 41,000  Level Jacksonville Center
Fri 10:48:29 AM 31.2622 -81.2497 North 422 486 41,000  Level Jacksonville Center
Fri 10:49:29 AM 31.3792 -81.2453 North 417 480 41,000  Level Jacksonville Center
Fri 10:50:29 AM 31.5106 -81.2381 North 422 486 41,000  Level Jacksonville Center
Fri 10:51:29 AM 31.6294 -81.2308 North 428 493 41,000  Level Jacksonville Center
Fri 10:52:29 AM 31.7314 -81.2047 12° North 422 486 41,000  Level Jacksonville Center
Fri 10:53:29 AM 31.8344 -81.1075 39° Northeast 419 482 41,000  Level Jacksonville Center
Fri 10:54:29 AM 31.9147 -81.0203 43° Northeast 424 488 41,000  Level Jacksonville Center
Fri 10:55:29 AM 32.0156 -80.9225 39° Northeast 432 497 41,000  Level Jacksonville Center
Fri 10:56:29 AM 32.1081 -80.8322 40° Northeast 426 490 41,000  Level Jacksonville Center
Fri 10:57:29 AM 32.1903 -80.7519 40° Northeast 426 490 41,000  Level Jacksonville Center
Fri 10:58:29 AM 32.2783 -80.6614 41° Northeast 426 490 41,000  Level Jacksonville Center
Fri 10:59:29 AM 32.3728 -80.5656 41° Northeast 426 490 41,000  Level Jacksonville Center
Fri 11:00:29 AM 32.4628 -80.4772 40° Northeast 426 490 41,000  Level Jacksonville Center
Fri 11:01:29 AM 32.5531 -80.3836 41° Northeast 426 490 41,000  Level Jacksonville Center
Fri 11:02:29 AM 32.6431 -80.2922 41° Northeast 426 490 41,000 -50 Level Jacksonville Center
Fri 11:03:29 AM 32.7328 -80.2008 41° Northeast 426 490 40,900  Descending Jacksonville Center
Fri 11:04:29 AM 32.8206 -80.1067 42° Northeast 426 490 41,000 50 Climbing Jacksonville Center
Fri 11:05:29 AM 32.9125 -80.0122 41° Northeast 426 490 41,000  Level Jacksonville Center
Fri 11:06:29 AM 33.0083 -79.9225 38° Northeast 426 490 41,000  Level Jacksonville Center
Fri 11:07:29 AM 33.1106 -79.8275 38° Northeast 426 490 41,000  Level Jacksonville Center
Fri 11:08:29 AM 33.2003 -79.7425 38° Northeast 426 490 41,000  Level Jacksonville Center
Fri 11:09:29 AM 33.2919 -79.6522 39° Northeast 420 483 41,000  Level Jacksonville Center
Fri 11:10:29 AM 33.3836 -79.5669 38° Northeast 420 483 41,000  Level Jacksonville Center
Fri 11:11:29 AM 33.4731 -79.4764 40° Northeast 414 476 41,000  Level Jacksonville Center
Fri 11:12:29 AM 33.5644 -79.3856 40° Northeast 414 476 41,000  Level Jacksonville Center
Fri 11:13:29 AM 33.6536 -79.2972 39° Northeast 414 476 41,000  Level Jacksonville Center
Fri 11:15:18 AM 33.8100 -79.1411 40° Northeast 422 486 41,000  Level Washington Center
Fri 11:16:21 AM 33.9011 -79.0517 39° Northeast 422 486 41,000  Level Washington Center
Fri 11:17:25 AM 33.9928 -78.9625 39° Northeast 422 486 41,000  Level Washington Center
Fri 11:18:25 AM 34.0833 -78.8722 40° Northeast 422 486 41,000  Level Washington Center
Fri 11:19:29 AM 34.1747 -78.7803 40° Northeast 422 486 41,000  Level Washington Center
Fri 11:20:29 AM 34.2850 -78.6708 39° Northeast 423 487 41,000  Level Washington Center
Fri 11:21:33 AM 34.3764 -78.5783 40° Northeast 424 488 41,000  Level Washington Center
Fri 11:22:34 AM 34.4694 -78.4844 40° Northeast 430 495 41,000 148 Level Washington Center
Fri 11:23:35 AM 34.5608 -78.3919 40° Northeast 429 494 41,300 480 Climbing Washington Center
Fri 11:24:39 AM 34.6500 -78.3014 40° Northeast 421 484 42,000 720 Climbing Washington Center
Fri 11:25:40 AM 34.7356 -78.2136 40° Northeast 407 468 42,800 480 Climbing Washington Center
Fri 11:26:44 AM 34.8267 -78.1189 40° Northeast 400 460 43,000 97 Climbing Washington Center
Fri 11:27:44 AM 34.9117 -78.0319 40° Northeast 400 460 43,000  Level Washington Center
Fri 11:28:48 AM 35.0133 -77.9275 40° Northeast 400 460 43,000  Level Washington Center
Fri 11:29:49 AM 35.0994 -77.8394 40° Northeast 401 461 43,000  Level Washington Center
Fri 11:30:52 AM 35.1850 -77.7503 40° Northeast 403 464 43,000  Level Washington Center
Fri 11:31:53 AM 35.2719 -77.6608 40° Northeast 409 471 43,000  Level Washington Center
Fri 11:32:57 AM 35.3592 -77.5714 40° Northeast 410 472 43,000  Level Washington Center
Fri 11:33:57 AM 35.4694 -77.4728 36° Northeast 411 473 43,000  Level Washington Center
Fri 11:35:01 AM 35.5619 -77.3906 36° Northeast 411 473 43,000  Level Washington Center
Fri 11:36:01 AM 35.6542 -77.3089 36° Northeast 411 473 43,000  Level Washington Center
Fri 11:37:05 AM 35.7481 -77.2256 36° Northeast 413 475 43,000  Level Washington Center
Fri 11:38:06 AM 35.8425 -77.1433 35° Northeast 414 476 43,000  Level Washington Center
Fri 11:39:09 AM 35.9397 -77.0572 36° Northeast 414 476 43,000  Level Washington Center
Fri 11:40:10 AM 36.0361 -76.9728 35° Northeast 423 487 43,000  Level Washington Center
Fri 11:41:14 AM 36.1486 -76.8706 36° Northeast 420 483 43,000  Level Washington Center
Fri 11:42:14 AM 36.2428 -76.7875 35° Northeast 419 482 43,000  Level Washington Center
Fri 11:43:18 AM 36.3367 -76.7031 36° Northeast 419 482 43,000  Level Washington Center
Fri 11:44:18 AM 36.4300 -76.6194 36° Northeast 418 481 43,000  Level Washington Center
Fri 11:45:21 AM 36.5225 -76.5356 36° Northeast 414 476 43,000  Level Washington Center
Fri 11:46:25 AM 36.6153 -76.4525 36° Northeast 412 474 43,000  Level Washington Center
Fri 11:47:26 AM 36.7258 -76.3500 37° Northeast 411 473 43,000  Level Washington Center
Fri 11:48:27 AM 36.8164 -76.2672 36° Northeast 411 473 43,000  Level Washington Center
Fri 11:49:31 AM 36.9100 -76.1889 34° Northeast 410 472 43,000  Level Washington Center
Fri 11:50:31 AM 37.0236 -76.1361 20° North 426 490 43,000  Level Washington Center
Fri 11:51:35 AM 37.1228 -76.0789 25° Northeast 404 465 43,000  Level Washington Center
Fri 11:52:36 AM 37.2239 -76.0233 24° Northeast 395 455 43,000  Level Washington Center
Fri 11:53:40 AM 37.3261 -75.9692 23° Northeast 399 459 43,000  Level Washington Center
Fri 11:54:41 AM 37.4494 -75.9025 23° Northeast 399 459 43,000  Level Washington Center
Fri 11:55:42 AM 37.5528 -75.8467 23° Northeast 401 461 43,000  Level Washington Center
Fri 11:56:47 AM 37.6500 -75.7703 32° Northeast 405 466 43,000  Level Washington Center
Fri 11:57:47 AM 37.7467 -75.6975 31° Northeast 405 466 43,000  Level Washington Center
Fri 11:58:51 AM 37.8447 -75.6253 30° Northeast 406 467 43,000  Level Washington Center
Fri 11:59:52 AM 37.9419 -75.5525 31° Northeast 406 467 43,000  Level Washington Center
Fri 12:00:55 PM 38.0567 -75.4636 31° Northeast 406 467 43,000  Level Washington Center
Fri 12:01:56 PM 38.1556 -75.3989 27° Northeast 404 465 43,000  Level Washington Center
Fri 12:03:00 PM 38.2553 -75.3364 26° Northeast 403 464 43,000 -435 Level Washington Center
Fri 12:04:00 PM 38.3678 -75.2686 25° Northeast 403 464 42,100 -919 Descending Washington Center
Fri 12:05:04 PM 38.4697 -75.2008 27° Northeast 411 473 41,100 -919 Descending Washington Center
Fri 12:06:04 PM 38.5728 -75.1381 25° Northeast 411 473 40,200 -960 Descending Washington Center
Fri 12:07:09 PM 38.6725 -75.0703 28° Northeast 410 472 39,100 -576 Descending Washington Center
Fri 12:08:09 PM 38.7750 -75.0047 26° Northeast 410 472 39,000 -48 Descending Washington Center
Fri 12:09:13 PM 38.8950 -74.9300 26° Northeast 403 464 39,000 -480 Level Washington Center
Fri 12:10:14 PM 38.9975 -74.8639 27° Northeast 407 468 38,000 -1,623 Descending Washington Center
Fri 12:11:15 PM 39.1022 -74.7956 27° Northeast 423 487 35,700 -2,304 Descending Washington Center
Fri 12:12:19 PM 39.2011 -74.6936 39° Northeast 453 521 33,200 -2,419 Descending Washington Center
Fri 12:13:19 PM 39.2981 -74.5906 39° Northeast 457 526 30,700 -2,855 Descending Washington Center
Fri 12:14:23 PM 39.4167 -74.4689 38° Northeast 458 527 27,300 -2,928 Descending Washington Center
Fri 12:15:24 PM 39.5142 -74.3650 39° Northeast 459 528 24,600 -1,584 Descending Washington Center
Fri 12:16:28 PM 39.6100 -74.2628 39° Northeast 456 525 24,000 -279 Descending Washington Center
Fri 12:17:33 PM 39.7236 -74.1447 39° Northeast 454 522 24,000 -145 Level New York Center
Fri 12:18:32 PM 39.8181 -74.0464 39° Northeast 441 507 23,700 -1,210 Descending New York Center
Fri 12:19:32 PM 39.9125 -73.9428 40° Northeast 436 502 21,600 -2,150 Descending New York Center
Fri 12:20:32 PM 40.0092 -73.8414 39° Northeast 441 507 19,400 -1,785 Descending New York Center
Fri 12:21:33 PM 40.0992 -73.7450 39° Northeast 432 497 18,000 -1,160 Descending New York Center
Fri 12:22:31 PM 40.1975 -73.6433 38° Northeast 433 498 17,100 -311 Descending New York Center
Fri 12:24:46 PM 40.3844 -73.4428 39° Northeast 419 482 17,000 -31 Descending Washington Center
Fri 12:25:46 PM 40.4950 -73.4075 14° North 414 476 17,000 -794 Level Washington Center
Fri 12:27:02 PM 40.6392 -73.3603 14° North 369 425 15,200 -870 Descending Boston Center
Fri 12:28:04 PM 40.7194 -73.3300 16° North 301 346 15,000 -242 Descending Boston Center
Fri 12:29:06 PM 40.7969 -73.2981 17° North 290 334 14,700 -823 Descending Boston Center
Fri 12:30:08 PM 40.8525 -73.2044 52° Northeast 328 377 13,300 -1,392 Descending Boston Center
Fri 12:31:11 PM 40.8950 -73.0958 63° Northeast 333 383 11,800 -1,392 Descending Boston Center
Fri 12:32:13 PM 40.9531 -72.9786 57° Northeast 320 368 10,400 -1,258 Descending Boston Center
Fri 12:33:15 PM 41.0219 -72.9961 349° North 292 336 9,200 -1,306 Descending Boston Center
Fri 12:34:17 PM 41.0603 -73.0808 301° West 274 315 7,700 -1,500 Descending Boston Center
Fri 12:35:19 PM 41.0942 -73.1686 297° West 274 315 6,100 -1,645 Descending Boston Center
Fri 12:36:21 PM 41.1275 -73.2547 297° West 268 308 4,300 -1,488 Descending Boston Center
Fri 12:37:24 PM 41.1692 -73.3564 299° West 263 303 3,000 -624 Descending Boston Center
Fri 12:38:26 PM 41.1939 -73.4375 292° West 242 278 3,000  Level Boston Center
Fri 12:39:28 PM 41.1533 -73.4933 226° Southwest 229 264 3,000 -145 Level Boston Center
Fri 12:40:30 PM 41.1572 -73.5606 274° West 222 255 2,700 -290 Descending Boston Center
Fri 12:41:32 PM 41.1850 -73.6233 300° West 208 239 2,400 -313 Descending Boston Center
Fri 12:42:25 PM 41.2167 -73.6833 305° West 187 215 2,100 -212 Descending New York TRACON
Fri 12:43:25 PM 41.2000 -73.7500 252° West 192 221 2,000 -50 Descending New York TRACON
Fri 12:44:25 PM 41.1833 -73.8000 246° West 193 222 2,000  Level New York TRACON
Fri 12:45:25 PM 41.1333 -73.7667 153° Southeast 161 185 2,000 -400 Level New York TRACON
Fri 12:46:25 PM 41.1000 -73.7333 143° Southeast 144 166 1,200 -800 Descending New York TRACON

Login

Don't have an account? Register now (free) for customized features, flight alerts, and more!